Time;durP1;ratioP1;P1;durP2;ratioP2;P2;SDS_P1;SDS_P2;PMS_P1;PMS_P2;Temp;Humidity;BMP_temperature;BMP_pressure;BME280_temperature;BME280_humidity;BME280_pressure;Samples;Min_cycle;Max_cycle;Signal;HPM_P1;HPM_P2
2023/01/14 00:01:03;;;;;;;1999.90;639.17;;;6.80;99.90;;;;;;5043670;28;20297;-52
2023/01/14 00:03:32;;;;;;;1961.77;274.97;;;6.90;99.90;;;;;;5044371;28;20719;-52
2023/01/14 00:06:01;;;;;;;161.80;43.90;;;6.80;99.90;;;;;;5048268;28;20213;-52
2023/01/14 00:08:30;;;;;;;986.93;179.27;;;6.80;99.90;;;;;;5042790;28;20655;-52
2023/01/14 00:11:02;;;;;;;621.53;129.67;;;6.80;99.90;;;;;;5029617;28;20292;-52
2023/01/14 00:13:32;;;;;;;1999.90;439.60;;;6.80;99.90;;;;;;5028745;28;20243;-53
2023/01/14 00:16:00;;;;;;;1249.43;206.23;;;6.80;99.90;;;;;;5026495;28;20245;-51
2023/01/14 00:18:28;;;;;;;1699.70;301.20;;;6.80;99.90;;;;;;5029156;28;20324;-52
2023/01/14 00:21:02;;;;;;;1378.10;184.67;;;6.80;99.90;;;;;;5028203;28;20651;-51
2023/01/14 00:23:31;;;;;;;1485.03;255.40;;;6.70;99.90;;;;;;5024561;28;20213;-51
2023/01/14 00:26:04;;;;;;;1510.13;263.13;;;6.70;99.90;;;;;;5028656;28;20203;-52
2023/01/14 00:28:33;;;;;;;1216.97;204.03;;;6.70;99.90;;;;;;5028506;28;20225;-52
2023/01/14 00:31:03;;;;;;;361.57;69.17;;;6.70;99.90;;;;;;5029209;28;20248;-52
2023/01/14 00:33:31;;;;;;;398.53;67.97;;;6.70;99.90;;;;;;5027646;28;21628;-50
2023/01/14 00:36:00;;;;;;;1144.50;212.47;;;6.60;99.90;;;;;;5029184;28;20304;-51
2023/01/14 00:38:29;;;;;;;1266.57;221.43;;;6.70;99.90;;;;;;5033543;28;20714;-51
2023/01/14 00:41:06;;;;;;;21.33;16.07;;;6.60;99.90;;;;;;5026929;28;20304;-51
2023/01/14 00:43:35;;;;;;;59.80;32.13;;;6.60;99.90;;;;;;5028445;28;20912;-51
2023/01/14 00:46:06;;;;;;;331.60;57.27;;;6.60;99.90;;;;;;5027410;28;20217;-51
2023/01/14 00:48:35;;;;;;;21.60;16.93;;;6.60;99.90;;;;;;5026937;28;20228;-51
2023/01/14 00:51:05;;;;;;;55.80;29.43;;;6.60;99.90;;;;;;5028131;28;20295;-51
2023/01/14 00:53:34;;;;;;;85.47;29.47;;;6.60;99.90;;;;;;5026213;28;20211;-51
2023/01/14 00:56:02;;;;;;;104.73;39.13;;;6.50;99.90;;;;;;5028654;28;20303;-52
2023/01/14 00:58:30;;;;;;;213.83;72.80;;;6.50;99.90;;;;;;5019227;28;20329;-52
2023/01/14 01:00:58;;;;;;;78.30;27.83;;;6.50;99.90;;;;;;5027402;28;20242;-52
2023/01/14 01:03:27;;;;;;;35.67;30.23;;;6.50;99.90;;;;;;5028092;28;20213;-52
2023/01/14 01:05:55;;;;;;;65.07;28.03;;;6.60;99.90;;;;;;5019091;28;20274;-51
2023/01/14 01:08:26;;;;;;;365.83;52.13;;;6.60;99.90;;;;;;5027389;28;20249;-51
2023/01/14 01:10:56;;;;;;;490.13;91.00;;;6.60;99.90;;;;;;5028193;28;20245;-51
2023/01/14 01:13:25;;;;;;;259.70;48.20;;;6.50;99.90;;;;;;5027890;28;20229;-52
2023/01/14 01:15:54;;;;;;;57.57;31.53;;;6.50;99.90;;;;;;5028626;28;20241;-52
2023/01/14 01:18:22;;;;;;;652.57;113.03;;;6.50;99.90;;;;;;5027721;28;20247;-52
2023/01/14 01:20:50;;;;;;;446.13;78.33;;;6.50;99.90;;;;;;5028258;28;20217;-51
2023/01/14 01:23:18;;;;;;;512.47;122.57;;;6.40;99.90;;;;;;5015428;28;20245;-51
2023/01/14 01:25:48;;;;;;;1247.57;166.43;;;6.40;99.90;;;;;;5027491;28;20242;-52
2023/01/14 01:28:16;;;;;;;305.80;80.23;;;6.40;99.90;;;;;;5023958;28;20264;-50
2023/01/14 01:30:44;;;;;;;384.57;91.00;;;6.40;99.90;;;;;;5028089;28;20717;-50
2023/01/14 01:33:12;;;;;;;961.30;117.53;;;6.40;99.90;;;;;;5030021;28;20301;-50
2023/01/14 01:35:40;;;;;;;215.50;39.67;;;6.30;99.90;;;;;;5032558;28;20216;-51
2023/01/14 01:38:08;;;;;;;612.93;141.13;;;6.30;99.90;;;;;;5031684;28;20271;-51
2023/01/14 01:40:36;;;;;;;278.17;95.63;;;6.30;99.90;;;;;;5031853;28;21017;-52
2023/01/14 01:43:11;;;;;;;622.80;112.37;;;6.30;99.90;;;;;;5031898;28;20208;-52
2023/01/14 01:45:44;;;;;;;177.63;59.13;;;6.30;99.90;;;;;;5032325;28;20255;-51
2023/01/14 01:48:16;;;;;;;163.20;48.97;;;6.30;99.90;;;;;;5031391;28;20232;-52
2023/01/14 01:50:47;;;;;;;162.20;43.23;;;6.40;99.90;;;;;;5031767;28;20219;-51
2023/01/14 01:53:16;;;;;;;128.07;41.63;;;6.30;99.90;;;;;;5031391;28;20316;-52
2023/01/14 01:55:49;;;;;;;126.17;34.90;;;6.40;99.90;;;;;;5032055;28;20321;-52
2023/01/14 01:58:18;;;;;;;1695.00;175.00;;;6.40;99.90;;;;;;5031741;28;20312;-51
2023/01/14 02:00:46;;;;;;;104.80;27.20;;;6.40;99.90;;;;;;5031752;28;20305;-51
2023/01/14 02:03:20;;;;;;;171.00;45.33;;;6.40;99.90;;;;;;5031491;28;20209;-53
2023/01/14 02:05:49;;;;;;;195.33;40.77;;;6.40;99.90;;;;;;5023813;28;20679;-52
2023/01/14 02:08:17;;;;;;;43.30;20.57;;;6.50;99.90;;;;;;5029022;28;20315;-50
2023/01/14 02:11:42;;;;;;;187.40;57.37;;;6.40;99.90;;;;;;5031339;28;20635;-51
2023/01/14 02:14:22;;;;;;;81.23;32.60;;;6.50;99.90;;;;;;4989176;28;20253;-52
2023/01/14 02:17:12;;;;;;;88.57;38.90;;;6.60;99.90;;;;;;4986188;28;20607;-51
2023/01/14 02:20:15;;;;;;;404.43;89.60;;;6.50;99.90;;;;;;5017701;28;20280;-52
2023/01/14 02:23:27;;;;;;;252.83;52.17;;;6.50;99.90;;;;;;5018001;28;20242;-51
2023/01/14 02:26:20;;;;;;;194.43;32.90;;;6.50;99.90;;;;;;5013792;28;20213;-52
2023/01/14 02:29:06;;;;;;;142.33;34.50;;;6.50;99.90;;;;;;5031192;28;20270;-52
2023/01/14 02:31:41;;;;;;;51.53;24.73;;;6.50;99.90;;;;;;5030418;28;20293;-52
2023/01/14 02:34:15;;;;;;;61.17;25.07;;;6.50;99.90;;;;;;5030107;28;20211;-51
2023/01/14 02:36:51;;;;;;;132.17;40.97;;;6.60;99.90;;;;;;5030393;28;20239;-51
2023/01/14 02:39:27;;;;;;;62.57;24.90;;;6.50;99.90;;;;;;5030639;28;20317;-52
2023/01/14 02:44:53;;;;;;;88.83;44.93;;;6.50;99.90;;;;;;5029949;28;20251;-51
2023/01/14 02:47:26;;;;;;;67.43;34.70;;;6.50;99.90;;;;;;5030712;28;20248;-52
2023/01/14 02:49:57;;;;;;;121.43;33.13;;;6.50;99.90;;;;;;5024501;28;20249;-51
2023/01/14 02:52:25;;;;;;;187.40;48.97;;;6.50;99.90;;;;;;5024807;28;20242;-51
2023/01/14 02:54:54;;;;;;;67.70;33.47;;;6.50;99.90;;;;;;5024371;28;20209;-51
2023/01/14 02:57:39;;;;;;;159.13;48.57;;;6.50;99.90;;;;;;5030475;28;20676;-51
2023/01/14 03:00:15;;;;;;;293.67;68.63;;;6.50;99.90;;;;;;5030803;28;20265;-51
2023/01/14 03:02:55;;;;;;;128.40;38.03;;;6.50;99.90;;;;;;5030423;28;20242;-51
2023/01/14 03:05:46;;;;;;;255.90;51.10;;;6.50;99.90;;;;;;5030709;28;20658;-51
2023/01/14 03:08:23;;;;;;;146.03;33.73;;;6.40;99.90;;;;;;5029988;28;20879;-51
2023/01/14 03:10:59;;;;;;;205.30;48.07;;;6.40;99.90;;;;;;5030534;28;20293;-51
2023/01/14 03:13:36;;;;;;;113.00;42.47;;;6.40;99.90;;;;;;5030304;28;20228;-51
2023/01/14 03:16:10;;;;;;;130.07;56.93;;;6.30;99.90;;;;;;5030398;28;20313;-51
2023/01/14 03:18:44;;;;;;;616.23;104.67;;;6.30;99.90;;;;;;5030569;28;20239;-51
2023/01/14 03:21:18;;;;;;;102.93;39.60;;;6.20;99.90;;;;;;5023953;28;20323;-51
2023/01/14 03:23:52;;;;;;;795.77;123.30;;;6.30;99.90;;;;;;5030172;28;20233;-51
2023/01/14 03:26:23;;;;;;;440.83;71.37;;;6.20;99.90;;;;;;5030126;28;20297;-51
2023/01/14 03:28:52;;;;;;;234.20;62.87;;;6.20;99.90;;;;;;5030274;28;20287;-51
2023/01/14 03:31:26;;;;;;;122.03;43.63;;;6.20;99.90;;;;;;5026759;28;20285;-51
2023/01/14 03:33:59;;;;;;;283.70;78.17;;;6.20;99.90;;;;;;5029835;28;20259;-51
2023/01/14 03:36:30;;;;;;;43.97;14.67;;;6.20;99.90;;;;;;5029456;28;20231;-51
2023/01/14 03:39:01;;;;;;;256.00;46.57;;;6.30;99.90;;;;;;5029620;28;20229;-51
2023/01/14 03:44:21;;;;;;;673.20;94.77;;;6.10;99.90;;;;;;5030001;28;21058;-51
2023/01/14 03:46:49;;;;;;;522.13;93.03;;;6.00;99.90;;;;;;5029070;28;20728;-51
2023/01/14 03:49:19;;;;;;;228.00;51.57;;;5.90;99.90;;;;;;5023504;28;20729;-51
2023/01/14 03:51:51;;;;;;;367.97;63.70;;;5.90;99.90;;;;;;5029507;28;20224;-51
2023/01/14 03:54:24;;;;;;;93.93;34.10;;;5.90;99.90;;;;;;5017222;28;20238;-51
2023/01/14 03:56:59;;;;;;;105.53;33.17;;;6.00;99.90;;;;;;5029646;28;20217;-51
2023/01/14 03:59:33;;;;;;;105.83;40.70;;;6.10;99.90;;;;;;5017216;28;20695;-51
2023/01/14 04:02:03;;;;;;;155.80;48.73;;;6.10;99.90;;;;;;5028976;28;20242;-51
2023/01/14 04:04:34;;;;;;;41.87;14.77;;;6.10;99.90;;;;;;5027724;28;20198;-51
2023/01/14 04:07:02;;;;;;;81.47;40.83;;;6.20;99.90;;;;;;5022695;28;20711;-50
2023/01/14 04:09:30;;;;;;;398.13;74.83;;;6.20;99.90;;;;;;5026715;28;20239;-50
2023/01/14 04:11:58;;;;;;;81.80;34.20;;;6.10;99.90;;;;;;5028132;28;20244;-51
2023/01/14 04:17:11;;;;;;;53.17;18.10;;;6.10;99.90;;;;;;5029459;28;21051;-51
2023/01/14 04:19:41;;;;;;;56.00;27.40;;;6.10;99.90;;;;;;5029139;28;21008;-51
2023/01/14 04:22:09;;;;;;;60.70;30.27;;;6.20;99.90;;;;;;5029213;28;20292;-51
2023/01/14 04:24:37;;;;;;;46.67;17.33;;;6.20;99.90;;;;;;5029060;28;20242;-51
2023/01/14 04:27:05;;;;;;;164.57;41.40;;;6.20;99.90;;;;;;5023930;28;20237;-51
2023/01/14 04:29:33;;;;;;;52.90;16.57;;;6.10;99.90;;;;;;5029295;28;20268;-51
2023/01/14 04:32:02;;;;;;;1182.53;184.87;;;6.10;99.90;;;;;;5029004;28;20241;-51
2023/01/14 04:34:30;;;;;;;1077.97;210.77;;;6.00;99.90;;;;;;5021044;28;20205;-52
2023/01/14 04:36:59;;;;;;;71.37;34.50;;;6.00;99.90;;;;;;5028352;28;20210;-51
2023/01/14 04:39:27;;;;;;;551.33;124.73;;;6.10;99.90;;;;;;5028164;28;20311;-51
2023/01/14 04:44:43;;;;;;;243.40;46.47;;;6.00;99.90;;;;;;5023498;28;20240;-51
2023/01/14 04:47:11;;;;;;;101.87;50.57;;;6.00;99.90;;;;;;5026734;28;20560;-51
2023/01/14 04:49:39;;;;;;;888.30;130.57;;;6.00;99.90;;;;;;5029195;28;20309;-50
2023/01/14 04:52:09;;;;;;;606.30;105.63;;;6.00;99.90;;;;;;5028215;28;20296;-51
2023/01/14 04:54:37;;;;;;;103.23;34.10;;;6.00;99.90;;;;;;5028704;28;20793;-52
2023/01/14 04:57:05;;;;;;;389.23;101.80;;;6.00;99.90;;;;;;5028836;28;20202;-52
2023/01/14 04:59:33;;;;;;;1024.90;147.37;;;6.00;99.90;;;;;;5020515;28;20897;-53
2023/01/14 05:02:01;;;;;;;1113.43;181.20;;;6.00;99.90;;;;;;5025658;28;20267;-51
2023/01/14 05:04:30;;;;;;;290.10;69.00;;;5.90;99.90;;;;;;5023949;28;20765;-52
2023/01/14 05:06:58;;;;;;;638.10;83.00;;;6.00;99.90;;;;;;5028069;28;20212;-51
2023/01/14 05:09:28;;;;;;;971.57;166.17;;;6.00;99.90;;;;;;5020744;28;20281;-52
2023/01/14 05:11:56;;;;;;;101.00;34.70;;;6.00;99.90;;;;;;5025961;28;20700;-52
2023/01/14 05:14:24;;;;;;;493.47;84.27;;;6.00;99.90;;;;;;5032830;28;20212;-50
2023/01/14 05:16:52;;;;;;;170.80;51.40;;;6.00;99.90;;;;;;5032543;28;20209;-51
2023/01/14 05:19:23;;;;;;;1961.60;325.93;;;6.00;99.90;;;;;;5032744;28;20280;-52
2023/01/14 05:21:51;;;;;;;1859.47;282.33;;;6.00;99.90;;;;;;5032566;28;20272;-50
2023/01/14 05:24:19;;;;;;;194.57;49.53;;;6.00;99.90;;;;;;5031816;28;20244;-51
2023/01/14 05:26:49;;;;;;;133.73;57.63;;;6.00;99.90;;;;;;5032744;28;20635;-52
2023/01/14 05:29:17;;;;;;;745.93;103.37;;;6.00;99.90;;;;;;5032245;28;20272;-52
2023/01/14 05:31:46;;;;;;;769.63;127.37;;;6.00;99.90;;;;;;5032213;28;20230;-51
2023/01/14 05:34:17;;;;;;;417.77;65.67;;;5.90;99.90;;;;;;5032113;28;20296;-52
2023/01/14 05:36:45;;;;;;;403.23;83.83;;;5.90;99.90;;;;;;5031780;28;20238;-52
2023/01/14 05:39:13;;;;;;;985.63;204.47;;;5.90;99.90;;;;;;5031996;28;20671;-52
2023/01/14 05:45:37;;;;;;;362.03;88.20;;;5.90;99.90;;;;;;5024545;28;20764;-51
2023/01/14 05:47:17;;;;;;;178.90;59.03;;;5.80;99.90;;;;;;5019929;28;20702;-52
2023/01/14 05:49:45;;;;;;;208.07;57.97;;;5.80;99.90;;;;;;5031612;28;20771;-51
2023/01/14 05:52:13;;;;;;;1191.03;175.20;;;5.70;99.90;;;;;;5031628;28;20226;-53
2023/01/14 05:54:41;;;;;;;173.07;50.30;;;5.70;99.90;;;;;;5031608;28;20299;-52
2023/01/14 05:57:13;;;;;;;640.07;126.63;;;5.70;99.90;;;;;;5030313;28;20235;-52
2023/01/14 05:59:43;;;;;;;420.27;88.80;;;5.70;99.90;;;;;;5023806;28;20324;-51
2023/01/14 06:07:53;;;;;;;602.70;97.07;;;5.50;99.90;;;;;;5031144;28;20310;-52
2023/01/14 06:10:24;;;;;;;248.63;79.37;;;5.50;99.90;;;;;;5031086;28;20239;-51
2023/01/14 06:13:03;;;;;;;363.03;96.83;;;5.50;99.90;;;;;;5031579;28;20562;-51
2023/01/14 06:15:36;;;;;;;367.03;75.70;;;5.50;99.90;;;;;;5031585;28;20211;-52
2023/01/14 06:18:13;;;;;;;170.73;45.60;;;5.50;99.90;;;;;;5031419;28;20227;-52
2023/01/14 06:20:42;;;;;;;564.73;92.43;;;5.50;99.90;;;;;;5030255;28;20306;-51
2023/01/14 06:23:11;;;;;;;52.60;26.20;;;5.50;99.90;;;;;;5031237;28;20242;-51
2023/01/14 06:25:44;;;;;;;92.97;39.00;;;5.50;99.90;;;;;;5030994;28;20208;-51
2023/01/14 06:28:12;;;;;;;338.13;83.40;;;5.50;99.90;;;;;;5031006;28;20220;-52
2023/01/14 06:30:41;;;;;;;465.20;86.07;;;5.60;99.90;;;;;;5031400;28;20236;-51
2023/01/14 06:33:10;;;;;;;615.13;107.50;;;5.60;99.90;;;;;;5030353;28;20255;-51
2023/01/14 06:35:42;;;;;;;270.20;72.40;;;5.50;99.90;;;;;;5031271;28;20211;-51
2023/01/14 06:38:10;;;;;;;1233.07;222.77;;;5.50;99.90;;;;;;5030109;28;20235;-51
2023/01/14 06:40:39;;;;;;;96.80;30.80;;;5.50;99.90;;;;;;5030932;28;20235;-51
2023/01/14 06:43:07;;;;;;;177.70;61.60;;;5.50;99.90;;;;;;5030512;28;20214;-51
2023/01/14 06:45:36;;;;;;;939.03;168.67;;;5.50;99.90;;;;;;5030997;28;20249;-51
2023/01/14 06:48:06;;;;;;;496.20;81.57;;;5.50;99.90;;;;;;5030629;28;20310;-51
2023/01/14 06:50:34;;;;;;;864.00;168.10;;;5.50;99.90;;;;;;5030986;28;20239;-52
2023/01/14 06:53:02;;;;;;;585.57;119.63;;;5.50;99.90;;;;;;5030622;28;20248;-51
2023/01/14 06:55:30;;;;;;;333.77;85.00;;;5.50;99.90;;;;;;5030762;28;20324;-52
2023/01/14 06:57:58;;;;;;;143.60;31.80;;;5.50;99.90;;;;;;5023115;28;20319;-50
2023/01/14 07:00:26;;;;;;;588.73;143.43;;;5.50;99.90;;;;;;5028265;28;20223;-52
2023/01/14 07:02:54;;;;;;;382.97;64.43;;;5.50;99.90;;;;;;5030306;28;20231;-51
2023/01/14 07:05:23;;;;;;;871.03;155.43;;;5.50;99.90;;;;;;5030231;28;20244;-52
2023/01/14 07:07:51;;;;;;;1282.20;204.40;;;5.50;99.90;;;;;;5030117;28;20262;-51
2023/01/14 07:10:20;;;;;;;1246.27;243.40;;;5.60;99.90;;;;;;5030235;28;20226;-52
2023/01/14 07:12:49;;;;;;;290.77;71.33;;;5.50;99.90;;;;;;5030179;28;20307;-52
2023/01/14 07:15:19;;;;;;;926.90;159.93;;;5.50;99.90;;;;;;5030287;28;20801;-52
2023/01/14 07:17:49;;;;;;;927.43;226.43;;;5.60;99.90;;;;;;5025403;28;20223;-52
2023/01/14 07:20:18;;;;;;;1210.53;219.50;;;5.50;99.90;;;;;;5029988;28;20687;-49
2023/01/14 07:22:50;;;;;;;871.57;176.70;;;5.50;99.90;;;;;;5031327;28;20254;-52
2023/01/14 07:25:18;;;;;;;1950.47;354.43;;;5.50;99.90;;;;;;5035077;28;20205;-52
2023/01/14 07:27:47;;;;;;;259.03;70.20;;;5.50;99.90;;;;;;5029080;28;20216;-51
2023/01/14 07:30:15;;;;;;;1977.50;382.07;;;5.50;99.90;;;;;;5031709;28;20640;-51
2023/01/14 07:32:43;;;;;;;918.27;170.97;;;5.50;99.90;;;;;;5029590;28;20261;-52
2023/01/14 07:35:11;;;;;;;796.83;136.43;;;5.40;99.90;;;;;;5029320;28;20288;-52
2023/01/14 07:37:39;;;;;;;1287.13;247.17;;;5.40;99.90;;;;;;5028150;28;20212;-52
2023/01/14 07:40:10;;;;;;;1871.63;259.43;;;5.40;99.90;;;;;;5029119;28;20648;-51
2023/01/14 07:42:38;;;;;;;1999.90;355.80;;;5.40;99.90;;;;;;5028869;28;20285;-52
2023/01/14 07:45:07;;;;;;;1919.63;344.27;;;5.30;99.90;;;;;;5028980;28;20230;-51
2023/01/14 07:47:35;;;;;;;1420.87;239.23;;;5.30;99.90;;;;;;5028668;28;20299;-52
2023/01/14 07:50:04;;;;;;;1999.90;361.73;;;5.30;99.90;;;;;;5029232;28;20251;-52
2023/01/14 07:52:32;;;;;;;316.87;79.97;;;5.30;99.90;;;;;;5029555;28;20250;-51
2023/01/14 07:55:00;;;;;;;345.20;74.07;;;5.30;99.90;;;;;;5029248;28;20203;-51
2023/01/14 07:57:29;;;;;;;1999.90;416.13;;;5.40;99.90;;;;;;5029796;28;20207;-51
2023/01/14 07:59:57;;;;;;;1179.00;162.93;;;5.30;99.90;;;;;;5028783;28;20297;-52
2023/01/14 08:02:25;;;;;;;1999.90;359.23;;;5.40;99.90;;;;;;5027304;28;20256;-51
2023/01/14 08:04:53;;;;;;;863.23;142.73;;;5.30;99.90;;;;;;5022729;28;20238;-51
2023/01/14 08:07:21;;;;;;;841.33;175.20;;;5.40;99.90;;;;;;5029631;28;20295;-51
2023/01/14 08:09:49;;;;;;;1787.43;276.80;;;5.40;99.90;;;;;;5029273;28;20276;-51
2023/01/14 08:12:17;;;;;;;1999.90;408.97;;;5.40;99.90;;;;;;5029190;28;20286;-51
2023/01/14 08:14:46;;;;;;;1096.30;188.47;;;5.30;99.90;;;;;;5029502;28;20211;-51
2023/01/14 08:17:14;;;;;;;1999.90;587.97;;;5.30;99.90;;;;;;5028894;28;20241;-51
2023/01/14 08:19:43;;;;;;;1999.90;447.67;;;5.40;99.90;;;;;;5029274;28;20728;-51
2023/01/14 08:22:12;;;;;;;1602.70;221.43;;;5.40;99.90;;;;;;5029217;28;20265;-51
2023/01/14 08:24:40;;;;;;;1936.47;298.47;;;5.40;99.90;;;;;;5029353;28;20375;-51
2023/01/14 08:27:08;;;;;;;1814.33;255.63;;;5.50;99.90;;;;;;5039132;28;20235;-51
2023/01/14 08:29:36;;;;;;;1499.63;176.83;;;5.50;99.90;;;;;;5046889;28;20272;-51
2023/01/14 08:32:06;;;;;;;1999.90;449.37;;;5.50;99.90;;;;;;5041913;28;20237;-51
2023/01/14 08:34:34;;;;;;;1999.90;331.17;;;5.50;99.90;;;;;;5044904;28;20249;-51
2023/01/14 08:37:02;;;;;;;1999.90;479.17;;;5.60;99.90;;;;;;5037524;28;20271;-51
2023/01/14 08:39:30;;;;;;;1684.33;250.57;;;5.60;99.90;;;;;;5047048;28;20253;-51
2023/01/14 08:41:58;;;;;;;1289.37;188.73;;;5.60;99.90;;;;;;5045556;28;20280;-51
2023/01/14 08:44:26;;;;;;;1357.63;224.60;;;5.60;99.90;;;;;;5042020;28;20225;-51
2023/01/14 08:46:54;;;;;;;1366.17;291.30;;;5.70;99.90;;;;;;5043720;28;20247;-51
2023/01/14 08:49:23;;;;;;;1999.90;581.70;;;5.70;99.90;;;;;;5040466;28;20734;-51
2023/01/14 08:51:54;;;;;;;1999.90;537.43;;;5.70;99.90;;;;;;5037098;28;20610;-51
2023/01/14 08:54:22;;;;;;;1999.90;662.30;;;5.60;99.90;;;;;;5038032;28;20229;-50
2023/01/14 08:56:50;;;;;;;1999.90;613.10;;;5.60;99.90;;;;;;5043468;28;20748;-50
2023/01/14 08:59:18;;;;;;;1603.93;242.93;;;5.60;99.90;;;;;;5046325;28;20275;-50
2023/01/14 09:01:46;;;;;;;1999.90;603.83;;;5.70;99.90;;;;;;5044112;28;20264;-51
2023/01/14 09:04:24;;;;;;;1999.90;395.83;;;5.70;99.90;;;;;;5035589;28;20727;-51
2023/01/14 09:17:58;;;;;;;1999.90;288.17;;;5.80;99.90;;;;;;5024457;28;20228;-51
2023/01/14 09:20:31;;;;;;;1999.90;528.50;;;5.80;99.90;;;;;;5014360;28;20239;-51
2023/01/14 09:23:01;;;;;;;1999.90;445.30;;;5.80;99.90;;;;;;5027883;28;20695;-53
2023/01/14 09:25:29;;;;;;;1999.90;527.83;;;5.90;99.90;;;;;;5027676;28;20279;-51
2023/01/14 09:27:57;;;;;;;1999.90;388.17;;;5.90;99.90;;;;;;5028404;28;20271;-50
2023/01/14 09:30:26;;;;;;;1999.90;819.00;;;5.90;99.90;;;;;;5028667;28;20212;-51
2023/01/14 09:32:54;;;;;;;1999.90;442.97;;;5.90;99.90;;;;;;5027974;28;20237;-53
2023/01/14 09:35:22;;;;;;;1999.90;600.33;;;5.90;99.90;;;;;;5024970;28;20247;-52
2023/01/14 09:37:51;;;;;;;1999.90;520.87;;;5.90;99.90;;;;;;5027486;28;20269;-52
2023/01/14 09:40:20;;;;;;;1999.90;262.67;;;6.00;99.90;;;;;;5028499;28;20239;-51
2023/01/14 09:42:50;;;;;;;1771.00;278.37;;;6.00;99.90;;;;;;5027959;28;20332;-52
2023/01/14 09:45:24;;;;;;;1999.90;497.50;;;5.90;99.90;;;;;;5028477;28;20215;-51
2023/01/14 09:47:54;;;;;;;1999.90;523.90;;;6.00;99.90;;;;;;5027655;28;20688;-52
2023/01/14 09:50:31;;;;;;;1999.90;407.73;;;6.00;99.90;;;;;;5028353;28;20269;-51
2023/01/14 09:53:10;;;;;;;1870.83;373.80;;;6.00;99.90;;;;;;5028194;28;20261;-51
2023/01/14 09:55:45;;;;;;;1381.70;226.20;;;6.10;99.90;;;;;;5031666;28;20287;-52
2023/01/14 09:58:20;;;;;;;1999.90;556.87;;;6.10;99.90;;;;;;5031787;28;20255;-53
2023/01/14 10:00:57;;;;;;;1999.90;322.67;;;6.10;99.90;;;;;;5031699;28;20290;-52
2023/01/14 10:03:29;;;;;;;533.47;84.87;;;6.10;99.90;;;;;;5031234;28;20229;-51
2023/01/14 10:06:01;;;;;;;1910.73;240.77;;;6.10;99.90;;;;;;5031910;28;20235;-52
2023/01/14 10:08:39;;;;;;;1999.90;569.37;;;6.10;99.90;;;;;;5031518;28;20280;-52
2023/01/14 10:11:10;;;;;;;1999.90;325.43;;;6.10;99.90;;;;;;5030544;28;20244;-52
2023/01/14 10:13:42;;;;;;;1804.90;293.57;;;6.10;99.90;;;;;;5030466;28;20240;-53
2023/01/14 10:16:16;;;;;;;1999.90;556.83;;;6.10;99.90;;;;;;5030891;28;20249;-51
2023/01/14 10:18:50;;;;;;;1999.90;381.83;;;6.20;99.90;;;;;;5031433;28;20241;-51
2023/01/14 10:21:25;;;;;;;1999.90;405.77;;;6.20;99.90;;;;;;5031031;28;20245;-52
2023/01/14 10:23:54;;;;;;;1999.90;547.80;;;6.10;99.90;;;;;;5030846;28;20229;-51
2023/01/14 10:26:26;;;;;;;1999.90;451.10;;;6.20;99.90;;;;;;5029039;28;20293;-52
2023/01/14 10:29:00;;;;;;;1417.17;282.80;;;6.20;99.90;;;;;;5031118;28;20264;-51
2023/01/14 10:31:30;;;;;;;1999.90;661.03;;;6.20;99.90;;;;;;5030987;28;20251;-51
2023/01/14 10:33:59;;;;;;;1999.90;605.47;;;6.20;99.90;;;;;;5029332;28;20229;-51
2023/01/14 10:36:30;;;;;;;1999.90;281.53;;;6.20;99.90;;;;;;5030493;28;20975;-53
2023/01/14 10:39:02;;;;;;;1999.90;511.00;;;6.30;99.90;;;;;;5030524;28;20229;-53
2023/01/14 10:44:22;;;;;;;1999.90;450.03;;;6.30;99.90;;;;;;5030684;28;20252;-51
2023/01/14 10:46:52;;;;;;;1999.90;429.33;;;6.30;99.90;;;;;;5020382;28;20205;-52
2023/01/14 10:49:22;;;;;;;1999.90;557.53;;;6.30;99.90;;;;;;5030512;28;20256;-53
2023/01/14 10:51:50;;;;;;;1999.90;335.17;;;6.30;99.90;;;;;;5030335;28;20232;-50
2023/01/14 10:54:22;;;;;;;1999.90;594.37;;;6.30;99.90;;;;;;5030623;28;20206;-53
2023/01/14 10:56:53;;;;;;;1221.63;179.87;;;6.40;99.90;;;;;;5023403;28;20212;-52
2023/01/14 10:59:44;;;;;;;1999.90;369.53;;;6.40;99.90;;;;;;5030133;28;20906;-52
2023/01/14 11:02:26;;;;;;;1999.90;488.37;;;6.30;99.90;;;;;;5029220;28;20659;-50
2023/01/14 11:04:55;;;;;;;1999.90;463.50;;;6.30;99.90;;;;;;5028953;28;20602;-51
2023/01/14 11:07:28;;;;;;;1999.90;329.67;;;6.30;99.90;;;;;;5025904;28;20678;-52
2023/01/14 11:10:01;;;;;;;1999.90;509.90;;;6.40;99.90;;;;;;5022826;28;20676;-52
2023/01/14 11:12:31;;;;;;;1999.90;415.20;;;6.40;99.90;;;;;;5029569;28;20240;-51
2023/01/14 11:15:00;;;;;;;1999.90;476.03;;;6.40;99.90;;;;;;5024978;28;20814;-51
2023/01/14 11:17:29;;;;;;;1999.90;606.17;;;6.40;99.90;;;;;;5028763;28;20212;-51
2023/01/14 11:20:21;;;;;;;1999.90;521.67;;;6.40;99.90;;;;;;5029002;28;20929;-52
2023/01/14 11:22:58;;;;;;;1999.90;563.23;;;6.40;99.90;;;;;;5030459;28;20214;-52
2023/01/14 11:25:28;;;;;;;1999.90;538.37;;;6.50;99.90;;;;;;5030233;28;20654;-52
2023/01/14 11:28:00;;;;;;;1999.90;568.27;;;6.50;99.90;;;;;;5027380;28;20268;-52
2023/01/14 11:30:28;;;;;;;1999.90;415.77;;;6.40;99.90;;;;;;5030053;28;20237;-52
2023/01/14 11:32:59;;;;;;;1999.90;548.10;;;6.50;99.90;;;;;;5029314;28;20642;-51
2023/01/14 11:35:30;;;;;;;1999.90;529.40;;;6.50;99.90;;;;;;5028970;28;20202;-52
2023/01/14 11:37:59;;;;;;;1409.73;223.43;;;6.50;99.90;;;;;;5029044;28;20275;-51
2023/01/14 11:43:14;;;;;;;1999.90;485.77;;;6.50;99.90;;;;;;5029178;28;20214;-51
2023/01/14 11:45:42;;;;;;;1999.90;488.17;;;6.60;99.90;;;;;;5029862;28;20254;-51
2023/01/14 11:48:26;;;;;;;1999.90;849.73;;;6.60;99.90;;;;;;5025185;28;20280;-51
2023/01/14 11:50:57;;;;;;;1999.90;354.47;;;6.60;99.90;;;;;;5023862;28;20216;-52
2023/01/14 11:53:27;;;;;;;1999.90;508.80;;;6.70;99.90;;;;;;5015676;28;20206;-52
2023/01/14 11:55:57;;;;;;;1999.90;549.43;;;6.70;99.90;;;;;;5029693;28;20243;-51
2023/01/14 11:58:27;;;;;;;1999.90;603.40;;;6.70;99.90;;;;;;5028971;28;20269;-52
2023/01/14 12:00:58;;;;;;;1999.90;466.03;;;6.70;99.90;;;;;;5029497;28;20252;-51
2023/01/14 12:03:34;;;;;;;1999.90;514.80;;;6.80;99.90;;;;;;5027977;28;20264;-51
2023/01/14 12:06:08;;;;;;;1999.90;438.23;;;6.80;99.90;;;;;;5029548;28;20208;-52
2023/01/14 12:08:41;;;;;;;1999.90;483.23;;;6.80;99.90;;;;;;5028660;28;20228;-52
2023/01/14 12:11:16;;;;;;;1999.90;519.53;;;6.80;99.90;;;;;;5022001;28;20214;-51
2023/01/14 12:16:51;;;;;;;1999.90;366.97;;;6.80;99.90;;;;;;5028841;28;20216;-52
2023/01/14 12:19:24;;;;;;;1999.90;422.13;;;6.80;99.90;;;;;;5028915;28;20252;-51
2023/01/14 12:21:57;;;;;;;1999.90;800.30;;;6.80;99.90;;;;;;5028819;28;20656;-53
2023/01/14 12:24:31;;;;;;;1999.90;524.80;;;6.80;99.90;;;;;;5029081;28;20232;-51
2023/01/14 12:27:03;;;;;;;1999.90;615.43;;;6.80;99.90;;;;;;5017598;28;20252;-51
2023/01/14 12:29:39;;;;;;;1999.90;567.33;;;6.90;99.90;;;;;;5028770;28;20230;-51
2023/01/14 12:32:12;;;;;;;1999.90;641.20;;;6.90;99.90;;;;;;5028788;28;20267;-52
2023/01/14 12:34:45;;;;;;;1999.90;740.07;;;6.80;99.90;;;;;;5027947;28;20635;-51
2023/01/14 12:37:18;;;;;;;1999.90;510.63;;;6.80;99.90;;;;;;5029142;28;20208;-51
2023/01/14 12:45:44;;;;;;;1999.90;631.10;;;6.90;99.90;;;;;;5016560;28;20222;-51
2023/01/14 12:48:14;;;;;;;1999.90;658.03;;;6.90;99.90;;;;;;5029294;28;20226;-51
2023/01/14 12:50:50;;;;;;;1999.90;435.30;;;6.90;99.90;;;;;;5026050;28;20234;-52
2023/01/14 12:53:23;;;;;;;1999.90;628.13;;;6.90;99.90;;;;;;5024502;28;20219;-52
2023/01/14 12:55:54;;;;;;;1999.90;517.73;;;6.90;99.90;;;;;;5028892;28;20296;-51
2023/01/14 12:58:26;;;;;;;1999.90;559.03;;;7.00;99.90;;;;;;5029026;28;20233;-51
2023/01/14 13:00:56;;;;;;;1999.90;436.23;;;7.00;99.90;;;;;;5028432;28;20304;-52
2023/01/14 13:03:30;;;;;;;1999.90;419.37;;;7.00;99.90;;;;;;5028410;28;20206;-51
2023/01/14 13:06:07;;;;;;;1999.90;704.17;;;7.00;99.90;;;;;;5027848;28;20312;-51
2023/01/14 13:08:37;;;;;;;1999.90;304.40;;;7.00;99.90;;;;;;5028579;28;20650;-51
2023/01/14 13:11:11;;;;;;;1999.90;933.33;;;7.10;99.90;;;;;;5028979;28;20221;-51
2023/01/14 13:13:42;;;;;;;1999.90;859.13;;;7.10;99.90;;;;;;5028408;28;20217;-51
2023/01/14 13:16:33;;;;;;;1999.90;520.17;;;7.00;99.90;;;;;;5022115;28;20214;-52
2023/01/14 13:19:03;;;;;;;1998.80;337.13;;;7.00;99.90;;;;;;5020661;28;20762;-51
2023/01/14 13:21:59;;;;;;;1999.90;508.17;;;7.10;99.90;;;;;;5028838;28;20244;-51
2023/01/14 13:24:30;;;;;;;1999.90;400.50;;;7.10;99.90;;;;;;5004331;28;20357;-51